Terminal Aerodrome Forecast
Issued by NWS

Current Version | Previous Version | Graphics & Text | Print | Product List | Glossary On
Versions: 1 2 3 4 5 6 7 8 9 10 11 12 13 14 15 16 17 18 19 20 21 22 23 24 25 26 27 28 29 30 31 32 33
000
FTUS41 KRNK 272328
TAFLWB
TAF
KLWB 272328Z 2800/2824 00000KT P6SM FEW050
     FM280600 00000KT 1/4SM FG VV001
     FM281330 VRB02KT P6SM BKN035
     FM281600 20006KT P6SM BKN050=

USA.gov is the U.S. government's official web portal to all federal, state and local government web resources and services.